Terminal Aerodrome Forecast
Issued by NWS Knoxville/Tri Cities, TN

Home | Current Version | Previous Version | Text Only | Print | Product List | Glossary On
Versions: 1 2 3 4 5 6 7 8 9 10 11 12 13 14 15 16 17 18 19 20 21 22 23 24 25 26 27 28 29
000
FTUS44 KMRX 131720
TAFTRI
TAF
KTRI 131720Z 1318/1418 30009KT P6SM SCT040
     FM132300 34006KT P6SM SKC
     FM140600 04005KT P6SM BKN100
     FM141200 05005KT P6SM OVC060
     FM141500 06005KT P6SM -SN OVC050=

USA.gov is the U.S. government's official web portal to all federal, state and local government web resources and services.